• Join FlightAware (Why Join?)
  • Login
  • US Flag 
05:35PM EDT


 

Airport Tracker/Info


-or-


 

Live Flight TrackerFlight Track Log ✈ N546QS ✈ 06-Jun-2013 ✈ KTEB - KMDW

Flight Track Log - Related Links

Times and Time Zones

All times are in EDT time to prevent confusion due to time zone crossing. See the N546QS flight status page for this flight to view local times or setup timezone preferences in your user account.

Time Position Orientation Groundspeed Altitude Reporting Facility
EDT Latitude Longitude Course Direction KTS MPH feet Rate Location/Type
05:03PM 40.8167 -74.2167 294° West 210 242 2,000  Level New York TRACON
05:04PM 40.8167 -74.3000 270° West 219 252 4,300 2,160 Climbing New York TRACON
05:05PM 40.8167 -74.3833 270° West 263 303 6,400 3,000 Climbing New York TRACON
05:06PM 40.8167 -74.4833 270° West 275 316 10,300 3,420 Climbing New York TRACON
05:07PM 40.8333 -74.5833 282° West 326 375 12,900 2,700 Climbing New York TRACON
05:08PM 40.8528 -74.6914 283° West 341 392 15,400 2,400 Climbing New York Center
05:09PM 40.8998 -74.8994 294° West  Level FlightAware Approximate
05:09PM 40.8714 -74.8186 281° West 347 399 17,700  Level New York Center
05:10PM 40.8881 -74.9378 281° West 358 412 20,300 2,760 Climbing New York Center
05:11PM 40.9061 -75.0733 280° West 368 423 23,300 2,280 Climbing New York Center
05:12PM 40.9072 -75.2133 271° West 378 435 24,800 1,440 Climbing New York Center
05:13PM 40.8703 -75.3647 252° West 384 442 26,200 1,320 Climbing New York Center
05:14PM 40.8353 -75.5078 252° West 394 453 27,500 1,200 Climbing New York Center
05:15PM 40.8025 -75.6506 253° West 399 459 28,700 1,260 Climbing New York Center
05:16PM 40.7692 -75.7964 253° West 410 472 30,000 1,320 Climbing New York Center
05:17PM 40.7339 -75.9417 252° West 415 478 31,300 1,320 Climbing New York Center
05:18PM 40.7000 -76.0922 254° West 425 489 32,700 1,200 Climbing New York Center
05:19PM 40.6694 -76.2131 252° West 430 495 33,700 1,140 Climbing New York Center
05:20PM 40.6806 -76.3783 275° West 424 488 35,000 1,140 Climbing New York Center
05:21PM 40.7047 -76.5281 282° West 418 481 36,100 1,080 Climbing New York Center
05:22PM 40.7286 -76.6781 282° West 423 487 37,200 1,020 Climbing New York Center
05:23PM 40.7500 -76.8278 281° West 423 487 38,100 840 Climbing New York Center
05:24PM 40.7719 -76.9722 281° West 412 474 38,900 780 Climbing New York Center
05:25PM 40.7933 -77.1194 281° West 412 474 39,700 840 Climbing New York Center
05:26PM 40.8144 -77.2642 281° West 412 474 40,600 960 Climbing New York Center
05:27PM 40.8342 -77.3978 281° West 404 465 41,700 960 Climbing New York Center
05:28PM 40.8536 -77.5342 281° West 391 450 42,600 660 Climbing New York Center
05:29PM 40.8708 -77.6703 280° West 380 437 43,000 180 Climbing New York Center
05:30PM 40.8903 -77.8089 281° West 384 442 43,000  Level Cleveland Center
05:31PM 40.9081 -77.9456 280° West 397 457 43,000  Level Cleveland Center
05:32PM 40.9258 -78.0850 280° West 397 457 43,000  Level Cleveland Center
05:33PM 40.9433 -78.2244 279° West 387 445 43,000  Level Cleveland Center
05:34PM 40.9625 -78.3503 281° West 387 445 43,000  Level Cleveland Center
05:35PM 40.9778 -78.4900 278° West 387 445 43,000  Level Cleveland Center
05:36PM 40.9928 -78.6272 278° West 387 445 43,000  Level Cleveland Center
05:37PM 41.0117 -78.7669 280° West 387 445 43,000  Level Cleveland Center
05:38PM 41.0283 -78.9097 279° West 387 445 43,000  Level Cleveland Center
05:39PM 41.0428 -79.0469 278° West 387 445 43,000  Level Cleveland Center
05:40PM 41.0592 -79.1842 279° West 387 445 43,000  Level Cleveland Center
05:41PM 41.0753 -79.3189 279° West 387 445 43,000 420 Level Cleveland Center
05:42PM 41.0894 -79.4619 278° West 387 445 43,900 900 Climbing Cleveland Center
05:43PM 41.1053 -79.6050 278° West 392 451 44,900 840 Climbing Cleveland Center
05:44PM 41.1231 -79.7481 279° West 392 451 45,600 660 Climbing Cleveland Center
05:45PM 41.1389 -79.9131 277° West 404 465 46,300 540 Climbing Cleveland Center
05:46PM 41.1542 -80.0481 279° West 409 471 46,700 300 Climbing Cleveland Center
05:47PM 41.1714 -80.2053 278° West 420 483 47,000 120 Climbing Cleveland Center
05:48PM 41.1864 -80.3653 277° West 431 496 47,000  Level Cleveland Center
05:49PM 41.2033 -80.5225 278° West 441 507 47,000  Level Cleveland Center
05:50PM 41.2178 -80.6769 277° West 441 507 47,000  Level Cleveland Center
05:51PM 41.2322 -80.8317 277° West 431 496 47,000  Level Cleveland Center
05:52PM 41.2483 -80.9864 278° West 424 488 47,000  Level Cleveland Center
05:54PM 41.2803 -81.3069 278° West 417 480 47,000  Level Cleveland Center
05:55PM 41.2978 -81.4592 279° West 417 480 47,000  Level Cleveland Center
05:56PM 41.3111 -81.6114 277° West 417 480 47,000  Level Cleveland Center
05:57PM 41.3242 -81.7692 276° West 428 493 47,000  Level Cleveland Center
05:58PM 41.3414 -81.9244 278° West 428 493 47,000  Level Cleveland Center
05:59PM 41.3519 -82.0850 275° West 428 493 47,000  Level Cleveland Center
06:00PM 41.3603 -82.2319 274° West 435 501 47,000  Level Cleveland Center
06:01PM 41.3703 -82.3900 275° West 435 501 47,000  Level Cleveland Center
06:02PM 41.3800 -82.5617 274° West 435 501 47,000 -420 Level Cleveland Center
06:03PM 41.3875 -82.7169 274° West 435 501 46,200 -840 Descending Cleveland Center
06:04PM 41.3953 -82.8639 274° West 416 479 45,400 -900 Descending Cleveland Center
06:05PM 41.4047 -83.0139 275° West 404 465 44,500 -960 Descending Cleveland Center
06:06PM 41.4117 -83.1664 274° West 409 471 43,500 -960 Descending Cleveland Center
06:07PM 41.4169 -83.3050 273° West 396 456 42,600 -960 Descending Cleveland Center
06:08PM 41.4239 -83.4411 274° West 384 442 41,600 -1,020 Descending Cleveland Center
06:09PM 41.4308 -83.5744 274° West 377 434 40,600 -1,020 Descending Cleveland Center
06:10PM 41.4375 -83.7214 274° West 372 428 39,600 -1,080 Descending Cleveland Center
06:11PM 41.4436 -83.8714 273° West 393 452 38,500 -1,260 Descending Cleveland Center
06:12PM 41.4517 -84.0214 274° West 404 465 37,100 -1,500 Descending Cleveland Center
06:13PM 41.4597 -84.1658 274° West 404 465 35,500 -1,620 Descending Cleveland Center
06:13PM 41.4622 -84.2036 275° West 384 442 35,000 -1,560 Descending Chicago Center
06:14PM 41.4686 -84.3453 273° West 385 443 33,400 -1,560 Descending Chicago Center
06:15PM 41.4747 -84.4931 273° West 397 457 31,800 -1,620 Descending Chicago Center
06:16PM 41.4803 -84.6431 273° West 405 466 30,100 -1,140 Descending Chicago Center
06:17PM 41.4853 -84.7958 273° West 412 474 29,500 -1,020 Descending Chicago Center
06:18PM 41.4928 -84.9775 273° West 410 472 28,000 -1,320 Descending Chicago Center
06:19PM 41.4978 -85.1244 273° West 398 458 26,800 -1,140 Descending Chicago Center
06:20PM 41.5025 -85.2717 273° West 396 456 25,700 -1,140 Descending Chicago Center
06:21PM 41.5069 -85.4203 272° West 394 453 24,500 -1,380 Descending Chicago Center
06:22PM 41.5114 -85.5672 272° West 388 447 22,900 -1,800 Descending Chicago Center
06:24PM 41.5158 -85.7103 272° West 381 438 20,800 -2,040 Descending Chicago Center
06:25PM 41.5197 -85.8483 272° West 373 429 18,800 -1,920 Descending Chicago Center
06:26PM 41.5236 -85.9853 272° West 370 426 16,900 -2,100 Descending Chicago Center
06:27PM 41.5242 -86.1447 270° West 360 414 14,500 -2,040 Descending Chicago Center
06:28PM 41.5233 -86.2753 270° West 353 406 12,700 -1,800 Descending Chicago Center
06:29PM 41.5228 -86.4003 270° West 341 392 10,900 -1,320 Descending Chicago Center
06:30PM 41.5214 -86.5206 269° West 325 374 10,000 -540 Descending Chicago Center
06:31PM 41.5208 -86.6219 270° West 276 318 9,900 -480 Descending Chicago Center
06:32PM 41.5203 -86.7331 270° West 275 316 9,100 -720 Descending Chicago Center
06:33PM 41.5197 -86.8331 270° West 273 314 8,400 -720 Descending Chicago Center
06:34PM 41.5181 -86.9322 269° West 270 311 7,700 -840 Descending Chicago Center
06:36PM 41.5333 -87.1333 276° West 267 307 6,000 -600 Descending Chicago TRACON
06:37PM 41.5500 -87.2333 283° West 266 306 6,000 -720 Level Chicago TRACON
06:38PM 41.5667 -87.3333 283° West 262 302 4,600 -1,320 Descending Chicago TRACON
06:38PM 41.5619 -87.3369 210° Southwest 263 303 4,400 -480 Descending Chicago Center
06:39PM 41.5772 -87.4297 282° West 260 299 4,000 -240 Descending Chicago Center
06:40PM 41.5950 -87.5419 282° West 260 299 4,000 -420 Level Chicago Center
06:41PM 41.6086 -87.6369 281° West 261 300 3,200 -780 Descending Chicago Center
06:42PM 41.6225 -87.7261 282° West 257 296 2,500 -360 Descending Chicago Center
06:43PM 41.6353 -87.8042 282° West 238 274 2,500  Level Chicago Center
06:44PM 41.6856 -87.8672 317° Northwest 216 249 2,500 -240 Level Chicago Center
06:45PM 41.7267 -87.8264 37° Northeast 196 226 2,100 -600 Descending Chicago Center
06:46PM 41.7553 -87.7889 44° Northeast 167 192 1,300 -540 Descending Chicago Center
06:47PM 41.7819 -87.7578 41° Northeast 146 168 1,000 -300 Descending Chicago Center